Time;durP1;ratioP1;P1;durP2;ratioP2;P2;SDS_P1;SDS_P2;PMS_P1;PMS_P2;Temp;Humidity;BMP_temperature;BMP_pressure;BME280_temperature;BME280_humidity;BME280_pressure;Samples;Min_cycle;Max_cycle;Signal;HPM_P1;HPM_P2
2022/11/14 00:02:11;;;;;;;14.83;13.63;;;7.10;99.90;;;;;;10409040;28;20224;-80
2022/11/14 00:07:32;;;;;;;16.10;14.67;;;7.10;99.90;;;;;;10448893;28;20209;-80
2022/11/14 00:12:52;;;;;;;44.00;34.80;;;7.00;99.90;;;;;;10430000;28;20217;-79
2022/11/14 00:18:14;;;;;;;14.50;13.30;;;7.00;99.90;;;;;;10459114;28;20215;-78
2022/11/14 00:23:35;;;;;;;15.63;14.43;;;6.90;99.90;;;;;;10441509;28;20221;-78
2022/11/14 00:28:55;;;;;;;13.77;12.57;;;6.90;99.90;;;;;;10436353;28;20200;-79
2022/11/14 00:34:18;;;;;;;14.20;13.10;;;6.80;99.90;;;;;;10435662;28;20209;-79
2022/11/14 00:39:39;;;;;;;13.47;12.40;;;6.80;99.90;;;;;;10440764;28;20276;-79
2022/11/14 00:44:59;;;;;;;14.53;13.37;;;6.80;99.90;;;;;;10430258;28;20217;-79
2022/11/14 00:50:21;;;;;;;16.33;14.93;;;6.70;99.90;;;;;;10442714;28;20216;-78
2022/11/14 00:55:42;;;;;;;14.50;13.30;;;6.70;99.90;;;;;;10457994;28;20707;-78
2022/11/14 01:01:03;;;;;;;13.53;12.43;;;6.70;99.90;;;;;;10414413;28;20288;-79
2022/11/14 01:06:25;;;;;;;16.30;14.90;;;6.70;99.90;;;;;;10448872;28;20217;-78
2022/11/14 01:11:45;;;;;;;14.57;13.47;;;6.70;99.90;;;;;;10417796;28;20267;-78
2022/11/14 01:17:06;;;;;;;14.97;13.53;;;6.60;99.90;;;;;;10453832;28;20247;-79
2022/11/14 01:22:29;;;;;;;15.23;13.93;;;6.60;99.90;;;;;;10444034;22;20333;-79
2022/11/14 01:27:50;;;;;;;14.17;12.73;;;6.60;99.90;;;;;;10415529;28;20659;-80
2022/11/14 01:33:11;;;;;;;14.23;13.03;;;6.60;99.90;;;;;;10414095;28;20217;-79
2022/11/14 01:38:32;;;;;;;14.23;13.03;;;6.60;99.90;;;;;;10415839;28;20800;-80
2022/11/14 01:43:53;;;;;;;14.80;13.60;;;6.50;99.90;;;;;;10363939;28;20214;-79
2022/11/14 01:49:19;;;;;;;17.87;16.07;;;6.50;99.90;;;;;;10402491;28;20229;-80
2022/11/14 01:54:44;;;;;;;14.30;13.20;;;6.50;99.90;;;;;;10417696;28;20217;-78
2022/11/14 02:00:08;;;;;;;14.70;13.40;;;6.40;99.90;;;;;;10395928;28;20205;-80
2022/11/14 02:05:30;;;;;;;14.87;13.67;;;6.40;99.90;;;;;;10396213;28;20250;-80
2022/11/14 02:10:52;;;;;;;15.20;13.87;;;6.30;99.90;;;;;;10420218;28;20221;-80
2022/11/14 02:16:13;;;;;;;14.27;13.07;;;6.30;99.90;;;;;;10421205;28;20222;-80
2022/11/14 02:21:36;;;;;;;14.43;13.23;;;6.20;99.90;;;;;;10408017;28;20204;-80
2022/11/14 02:26:56;;;;;;;15.20;14.00;;;6.20;99.90;;;;;;10418671;28;20198;-80
2022/11/14 02:32:17;;;;;;;15.10;13.70;;;6.20;99.90;;;;;;10424989;28;20316;-80
2022/11/14 02:37:40;;;;;;;14.70;13.50;;;6.10;99.90;;;;;;10422388;28;20244;-79
2022/11/14 02:43:01;;;;;;;14.87;13.67;;;6.10;99.90;;;;;;10422120;28;20800;-78
2022/11/14 02:48:21;;;;;;;15.97;14.53;;;6.10;99.90;;;;;;10422215;28;20227;-80
2022/11/14 02:53:43;;;;;;;16.47;15.07;;;6.20;99.90;;;;;;10427563;28;20308;-79
2022/11/14 02:59:04;;;;;;;14.70;13.43;;;6.20;99.90;;;;;;10390831;28;20195;-80
2022/11/14 03:04:25;;;;;;;15.27;14.07;;;6.20;99.90;;;;;;10392187;28;20234;-79
2022/11/14 03:09:47;;;;;;;16.10;14.70;;;6.20;99.90;;;;;;10430420;28;20189;-80
2022/11/14 03:15:08;;;;;;;14.60;13.50;;;6.20;99.90;;;;;;10425253;28;20212;-80
2022/11/14 03:20:29;;;;;;;15.60;14.30;;;6.30;99.90;;;;;;10420114;28;20281;-78
2022/11/14 03:25:51;;;;;;;15.20;13.90;;;6.40;99.90;;;;;;10420091;28;20249;-79
2022/11/14 03:31:14;;;;;;;17.63;16.10;;;6.50;99.90;;;;;;10401366;28;20217;-78
2022/11/14 03:36:35;;;;;;;14.00;12.90;;;6.60;99.90;;;;;;10419339;28;20197;-79
2022/11/14 03:41:56;;;;;;;15.97;14.67;;;6.60;99.90;;;;;;10419870;28;20218;-81
2022/11/14 03:47:17;;;;;;;14.47;13.37;;;6.60;99.90;;;;;;10402350;28;20205;-80
2022/11/14 03:52:37;;;;;;;16.57;15.17;;;6.60;99.90;;;;;;10402613;28;20225;-80
2022/11/14 03:57:59;;;;;;;22.90;20.00;;;6.60;99.90;;;;;;10402926;28;20288;-79
2022/11/14 04:03:20;;;;;;;15.10;13.90;;;6.60;99.90;;;;;;10404900;28;20224;-80
2022/11/14 04:08:41;;;;;;;17.20;15.67;;;6.70;99.90;;;;;;10421484;28;20189;-80
2022/11/14 04:14:03;;;;;;;14.10;12.97;;;6.70;99.90;;;;;;10422320;28;20221;-79
2022/11/14 04:19:24;;;;;;;15.83;14.43;;;6.70;99.90;;;;;;10411584;28;20566;-79
2022/11/14 04:24:45;;;;;;;16.17;14.87;;;6.60;99.90;;;;;;10408370;28;20226;-79
2022/11/14 04:30:08;;;;;;;13.77;12.77;;;6.60;99.90;;;;;;10419238;28;20244;-79
2022/11/14 04:35:29;;;;;;;15.40;14.20;;;6.60;99.90;;;;;;10416504;28;20694;-79
2022/11/14 04:40:50;;;;;;;14.40;13.30;;;6.60;99.90;;;;;;10380214;28;20202;-80
2022/11/14 04:46:12;;;;;;;14.30;13.20;;;6.50;99.90;;;;;;10419549;28;20697;-79
2022/11/14 04:51:33;;;;;;;16.20;14.83;;;6.60;99.90;;;;;;10403988;28;20233;-79
2022/11/14 04:56:53;;;;;;;15.67;14.27;;;6.50;99.90;;;;;;10403684;28;20198;-79
2022/11/14 05:02:15;;;;;;;14.83;13.50;;;6.40;99.90;;;;;;10419854;28;20213;-79
2022/11/14 05:07:36;;;;;;;16.30;15.10;;;6.50;99.90;;;;;;10417335;28;20193;-79
2022/11/14 05:12:56;;;;;;;14.70;13.60;;;6.50;99.90;;;;;;10418808;28;20213;-79
2022/11/14 05:18:18;;;;;;;13.47;12.37;;;6.50;99.90;;;;;;10427774;28;20198;-79
2022/11/14 05:23:39;;;;;;;15.07;13.97;;;6.40;99.90;;;;;;10416211;28;20313;-80
2022/11/14 05:29:00;;;;;;;13.70;12.70;;;6.30;99.90;;;;;;10419076;28;20194;-81
2022/11/14 05:34:22;;;;;;;14.83;13.60;;;6.30;99.90;;;;;;10400817;28;20221;-80
2022/11/14 05:39:43;;;;;;;14.63;13.50;;;6.30;99.90;;;;;;10403202;28;20194;-78
2022/11/14 05:45:04;;;;;;;16.10;14.80;;;6.30;99.90;;;;;;10407206;28;20241;-79
2022/11/14 05:50:26;;;;;;;16.33;15.07;;;6.30;99.90;;;;;;10413870;28;20301;-80
2022/11/14 05:55:46;;;;;;;16.80;15.47;;;6.30;99.90;;;;;;10403571;28;20213;-81
2022/11/14 06:01:09;;;;;;;18.50;17.03;;;6.30;99.90;;;;;;10422843;28;20193;-79
2022/11/14 06:06:31;;;;;;;15.30;14.00;;;6.30;99.90;;;;;;10418670;28;20185;-80
2022/11/14 06:11:52;;;;;;;15.63;14.40;;;6.30;99.90;;;;;;10423988;28;20240;-78
2022/11/14 06:17:12;;;;;;;15.90;14.60;;;6.40;99.90;;;;;;10426888;28;20614;-80
2022/11/14 06:22:34;;;;;;;14.57;13.47;;;6.50;99.90;;;;;;10395540;28;20277;-79
2022/11/14 06:27:56;;;;;;;15.83;14.53;;;6.60;99.90;;;;;;10415677;28;20200;-79
2022/11/14 06:33:16;;;;;;;14.23;13.03;;;6.70;99.90;;;;;;10425625;28;20355;-80
2022/11/14 06:38:40;;;;;;;14.57;13.40;;;6.90;99.90;;;;;;10438112;28;20412;-81
2022/11/14 06:44:01;;;;;;;15.47;14.27;;;7.00;99.90;;;;;;10423397;28;20209;-78
2022/11/14 06:49:23;;;;;;;14.33;13.23;;;7.20;99.90;;;;;;10407023;28;20204;-81
2022/11/14 06:54:45;;;;;;;14.93;13.83;;;7.30;99.90;;;;;;10421733;28;20217;-80
2022/11/14 07:00:07;;;;;;;13.53;12.53;;;7.50;99.90;;;;;;10421666;28;20190;-79
2022/11/14 07:05:28;;;;;;;12.90;11.97;;;7.60;99.90;;;;;;10421003;28;20213;-80
2022/11/14 07:10:49;;;;;;;15.83;14.53;;;7.60;99.90;;;;;;10401695;28;20201;-79
2022/11/14 07:16:10;;;;;;;15.73;14.27;;;7.70;99.90;;;;;;10403805;28;20328;-81
2022/11/14 07:26:56;;;;;;;14.50;13.30;;;7.80;99.90;;;;;;10373761;28;20281;-77
2022/11/14 07:32:16;;;;;;;14.07;12.97;;;7.90;99.90;;;;;;10374811;28;20582;-78
2022/11/14 07:37:37;;;;;;;14.00;12.70;;;7.90;99.90;;;;;;10373940;28;20670;-78
2022/11/14 07:43:00;;;;;;;14.93;13.73;;;7.90;99.90;;;;;;10374567;28;20219;-79
2022/11/14 07:48:22;;;;;;;14.17;13.07;;;8.00;99.90;;;;;;10374739;28;20377;-78
2022/11/14 07:53:43;;;;;;;15.00;13.80;;;8.00;99.90;;;;;;10373597;28;20296;-77
2022/11/14 07:59:05;;;;;;;13.77;12.77;;;8.20;99.90;;;;;;10348547;28;20644;-78
2022/11/14 08:04:26;;;;;;;12.73;11.63;;;8.30;99.90;;;;;;10353919;28;20210;-78
2022/11/14 08:09:46;;;;;;;12.10;11.10;;;8.50;99.90;;;;;;10372594;28;20190;-79
2022/11/14 08:15:11;;;;;;;13.23;12.13;;;8.60;99.90;;;;;;10372817;28;20223;-77
2022/11/14 08:20:31;;;;;;;10.50;9.70;;;8.80;99.90;;;;;;10374348;28;20281;-78
2022/11/14 08:25:52;;;;;;;10.80;9.90;;;8.90;99.90;;;;;;10374071;28;20761;-78
2022/11/14 08:31:13;;;;;;;11.00;9.43;;;9.00;99.90;;;;;;10373104;28;20749;-80
2022/11/14 08:36:34;;;;;;;10.63;9.93;;;9.10;99.90;;;;;;10373070;28;20325;-80
2022/11/14 08:41:55;;;;;;;12.87;11.97;;;9.10;99.90;;;;;;10370958;28;20266;-79
2022/11/14 08:47:17;;;;;;;17.50;16.33;;;9.10;99.90;;;;;;10371638;28;20202;-78
2022/11/14 08:52:37;;;;;;;14.20;13.40;;;9.00;99.90;;;;;;10354899;28;20218;-77
2022/11/14 08:57:58;;;;;;;11.60;10.80;;;9.00;99.90;;;;;;10373838;28;20194;-79
2022/11/14 09:03:20;;;;;;;12.77;11.97;;;9.00;99.90;;;;;;10373225;28;20666;-77
2022/11/14 09:08:40;;;;;;;10.83;10.13;;;9.00;99.90;;;;;;10371751;28;20222;-78
2022/11/14 09:14:01;;;;;;;14.70;13.77;;;9.10;99.90;;;;;;10373936;28;20680;-78
2022/11/14 09:19:23;;;;;;;11.07;10.40;;;9.10;99.90;;;;;;10374009;28;20197;-79
2022/11/14 09:24:46;;;;;;;15.20;14.20;;;9.20;99.90;;;;;;10370131;28;20292;-80
2022/11/14 09:30:08;;;;;;;14.73;13.90;;;9.20;99.90;;;;;;10371876;28;20190;-79
2022/11/14 09:35:30;;;;;;;16.23;15.23;;;9.30;99.90;;;;;;10352337;28;20222;-80
2022/11/14 09:41:04;;;;;;;16.33;15.23;;;9.40;99.90;;;;;;10371014;28;20210;-78
2022/11/14 09:46:27;;;;;;;13.50;12.67;;;9.50;99.90;;;;;;10352742;28;20215;-78
2022/11/14 09:51:56;;;;;;;16.30;15.30;;;9.60;99.90;;;;;;10370433;28;20202;-78
2022/11/14 09:57:20;;;;;;;16.03;14.93;;;9.70;99.90;;;;;;10369791;28;20205;-78
2022/11/14 10:02:51;;;;;;;16.10;15.23;;;9.80;99.90;;;;;;10376163;28;20217;-79
2022/11/14 10:08:38;;;;;;;14.63;13.83;;;9.90;99.90;;;;;;10378099;28;20193;-79
2022/11/14 10:14:29;;;;;;;15.63;14.80;;;10.10;99.90;;;;;;10378205;28;20218;-79
2022/11/14 10:19:57;;;;;;;17.53;16.47;;;10.20;99.90;;;;;;10381125;28;20191;-81
2022/11/14 10:25:24;;;;;;;15.23;13.70;;;10.30;99.90;;;;;;10396269;28;20245;-82
2022/11/14 10:30:52;;;;;;;19.20;18.07;;;10.50;99.90;;;;;;10384407;28;20286;-82
2022/11/14 10:36:21;;;;;;;17.03;16.03;;;10.60;99.90;;;;;;10366110;28;20774;-81
2022/11/14 10:41:44;;;;;;;18.80;17.40;;;10.60;99.90;;;;;;10380931;28;20186;-79
2022/11/14 10:47:12;;;;;;;16.67;15.67;;;10.60;99.90;;;;;;10378743;28;20197;-82
2022/11/14 10:52:38;;;;;;;17.00;16.10;;;10.70;99.90;;;;;;10380537;28;20638;-81
2022/11/14 10:58:03;;;;;;;15.43;14.33;;;10.80;99.90;;;;;;10360254;28;20666;-80
2022/11/14 11:03:41;;;;;;;20.87;19.57;;;10.90;99.90;;;;;;10378944;28;20748;-79
2022/11/14 11:14:51;;;;;;;16.50;15.40;;;11.10;99.90;;;;;;10378496;28;20218;-82
2022/11/14 11:20:33;;;;;;;17.47;16.57;;;11.20;99.90;;;;;;10383887;28;20626;-79
2022/11/14 11:26:00;;;;;;;15.47;14.57;;;11.20;99.90;;;;;;10381538;28;20218;-83
2022/11/14 11:31:22;;;;;;;16.47;15.53;;;11.20;99.90;;;;;;10383993;28;20345;-83
2022/11/14 11:36:47;;;;;;;12.60;11.80;;;11.20;99.90;;;;;;10380159;28;20620;-81
2022/11/14 11:42:12;;;;;;;15.40;14.63;;;11.20;99.90;;;;;;10386251;28;20211;-81
2022/11/14 11:47:36;;;;;;;13.33;12.73;;;11.20;99.90;;;;;;10375313;28;20199;-80
2022/11/14 11:53:06;;;;;;;11.73;11.13;;;11.20;99.90;;;;;;10336555;28;20340;-81
2022/11/14 11:58:32;;;;;;;13.47;12.87;;;11.30;99.90;;;;;;10345239;28;20187;-80
2022/11/14 12:03:54;;;;;;;10.73;10.03;;;11.30;99.90;;;;;;10375991;28;20206;-80
2022/11/14 12:09:21;;;;;;;10.80;10.30;;;11.30;99.90;;;;;;10373063;28;20221;-81
2022/11/14 12:15:20;;;;;;;13.20;12.60;;;11.30;99.90;;;;;;10373416;28;20214;-82
2022/11/14 12:20:56;;;;;;;12.17;11.57;;;11.30;99.90;;;;;;10209263;29;20209;-80
2022/11/14 12:26:33;;;;;;;12.63;12.10;;;11.30;99.90;;;;;;10364271;28;20227;-81
2022/11/14 12:31:58;;;;;;;11.83;11.33;;;11.40;99.90;;;;;;10373083;28;20225;-81
2022/11/14 12:37:23;;;;;;;11.87;11.27;;;11.60;99.90;;;;;;10377185;28;20195;-83
2022/11/14 12:42:47;;;;;;;12.80;12.30;;;11.70;99.90;;;;;;10372798;28;20268;-80
2022/11/14 12:48:33;;;;;;;13.60;12.90;;;11.70;99.90;;;;;;10355992;28;20203;-81
2022/11/14 12:53:55;;;;;;;11.30;10.70;;;11.60;99.90;;;;;;10338702;28;20227;-80
2022/11/14 12:59:30;;;;;;;10.67;10.17;;;11.50;99.90;;;;;;10334767;28;20282;-81
2022/11/14 13:05:22;;;;;;;13.20;12.50;;;11.40;99.90;;;;;;10372806;28;20577;-81
2022/11/14 13:10:44;;;;;;;13.53;12.80;;;11.40;99.90;;;;;;10372839;28;20198;-80
2022/11/14 13:22:34;;;;;;;13.90;13.20;;;11.40;99.90;;;;;;10335266;28;1078398;-81
2022/11/14 13:28:17;;;;;;;16.37;15.33;;;11.40;99.90;;;;;;10373571;28;20654;-81
2022/11/14 13:33:45;;;;;;;13.37;12.63;;;11.40;99.90;;;;;;10377243;28;20226;-80
2022/11/14 13:39:22;;;;;;;14.47;13.77;;;11.30;99.90;;;;;;10353047;28;20738;-79
2022/11/14 13:45:13;;;;;;;13.80;13.10;;;11.30;99.90;;;;;;10372757;28;20344;-80
2022/11/14 13:50:36;;;;;;;14.27;13.57;;;11.30;99.90;;;;;;10387429;23;20226;-84
2022/11/14 13:56:05;;;;;;;14.80;13.90;;;11.30;99.90;;;;;;10373495;28;20211;-85
2022/11/14 14:01:44;;;;;;;15.00;14.20;;;11.30;99.90;;;;;;10377553;28;20210;-85
2022/11/14 14:07:11;;;;;;;15.00;14.00;;;11.40;99.90;;;;;;10353078;28;20198;-84
2022/11/14 14:12:50;;;;;;;13.53;12.73;;;11.40;99.90;;;;;;10370800;28;20202;-84
2022/11/14 14:18:23;;;;;;;11.70;10.97;;;11.40;99.90;;;;;;10352329;28;20360;-84
2022/11/14 14:23:49;;;;;;;12.97;12.27;;;11.40;99.90;;;;;;10371556;28;20222;-83
2022/11/14 14:29:22;;;;;;;12.27;11.23;;;11.40;99.90;;;;;;10371779;28;20232;-83
2022/11/14 14:34:44;;;;;;;13.30;12.40;;;11.40;99.90;;;;;;10353728;28;20233;-83
2022/11/14 14:40:07;;;;;;;12.50;11.80;;;11.40;99.90;;;;;;10373514;28;20210;-83
2022/11/14 14:45:30;;;;;;;9.23;8.73;;;11.40;99.90;;;;;;10333815;28;20567;-83
2022/11/14 14:50:53;;;;;;;12.87;11.97;;;11.50;99.90;;;;;;10322571;28;20321;-83
2022/11/14 14:56:19;;;;;;;8.93;8.33;;;11.50;99.90;;;;;;10323313;28;20218;-83
2022/11/14 15:01:40;;;;;;;12.43;11.83;;;11.50;99.90;;;;;;10363192;28;20432;-83
2022/11/14 15:07:03;;;;;;;11.10;10.60;;;11.50;99.90;;;;;;10381178;28;20646;-85
2022/11/14 15:12:26;;;;;;;11.20;10.50;;;11.50;99.90;;;;;;10386786;28;20717;-85
2022/11/14 15:17:48;;;;;;;10.30;9.60;;;11.50;99.90;;;;;;10368374;28;20218;-85
2022/11/14 15:23:20;;;;;;;11.70;11.07;;;11.50;99.90;;;;;;10370318;28;20202;-84
2022/11/14 15:28:41;;;;;;;11.00;10.30;;;11.50;99.90;;;;;;10364699;28;20222;-83
2022/11/14 15:34:05;;;;;;;8.90;8.20;;;11.40;99.90;;;;;;10362148;28;20217;-83
2022/11/14 15:39:27;;;;;;;9.67;9.00;;;11.40;99.90;;;;;;10362618;28;20218;-84
2022/11/14 15:44:48;;;;;;;8.37;7.87;;;11.40;99.90;;;;;;10382445;28;20195;-85
2022/11/14 15:50:27;;;;;;;9.40;8.80;;;11.40;99.90;;;;;;10363740;28;20233;-83
2022/11/14 15:55:49;;;;;;;7.80;7.10;;;11.30;99.90;;;;;;10338329;28;20354;-82
2022/11/14 16:01:17;;;;;;;12.17;11.27;;;11.20;99.90;;;;;;10374271;28;20702;-83
2022/11/14 16:06:37;;;;;;;11.40;10.40;;;11.20;99.90;;;;;;10377874;28;20273;-83
2022/11/14 16:11:59;;;;;;;10.70;9.80;;;11.10;99.90;;;;;;10376385;28;20301;-83
2022/11/14 16:17:19;;;;;;;10.30;9.50;;;11.00;99.90;;;;;;10335639;28;20558;-80
2022/11/14 16:22:40;;;;;;;7.50;6.80;;;11.00;99.90;;;;;;10374532;28;20269;-80
2022/11/14 16:28:02;;;;;;;10.50;9.73;;;10.90;99.90;;;;;;10376751;28;20641;-79
2022/11/14 16:33:22;;;;;;;11.30;10.30;;;10.90;99.90;;;;;;10376492;28;20214;-80
2022/11/14 16:38:42;;;;;;;12.00;11.00;;;11.00;99.90;;;;;;10357229;28;20218;-80
2022/11/14 16:44:05;;;;;;;9.23;8.43;;;11.00;99.90;;;;;;10346848;28;20191;-80
2022/11/14 16:49:25;;;;;;;8.40;7.80;;;11.00;99.90;;;;;;10352561;28;20799;-81
2022/11/14 16:54:46;;;;;;;9.70;8.90;;;11.00;99.90;;;;;;10355702;28;20217;-81
2022/11/14 17:00:11;;;;;;;9.17;8.47;;;11.00;99.90;;;;;;10367867;28;20210;-81
2022/11/14 17:05:31;;;;;;;9.87;9.07;;;11.00;99.90;;;;;;10354086;28;20550;-81
2022/11/14 17:10:52;;;;;;;10.03;9.33;;;11.00;99.90;;;;;;10354061;28;20221;-81
2022/11/14 17:16:14;;;;;;;11.60;10.77;;;10.90;99.90;;;;;;10356742;28;20222;-83
2022/11/14 17:21:35;;;;;;;11.37;10.57;;;10.90;99.90;;;;;;10356581;28;20746;-80
2022/11/14 17:26:56;;;;;;;12.07;11.13;;;10.90;99.90;;;;;;10372473;28;20206;-81
2022/11/14 17:32:17;;;;;;;11.60;10.80;;;10.90;99.90;;;;;;10361573;28;20198;-81
2022/11/14 17:37:38;;;;;;;13.17;11.93;;;10.80;99.90;;;;;;10369394;28;20254;-81
2022/11/14 17:42:58;;;;;;;12.53;11.43;;;10.80;99.90;;;;;;10355155;28;20193;-81
2022/11/14 17:48:20;;;;;;;10.57;9.77;;;10.80;99.90;;;;;;10376480;28;20312;-82
2022/11/14 17:53:42;;;;;;;10.60;9.70;;;10.80;99.90;;;;;;10373202;28;20348;-82
2022/11/14 17:59:03;;;;;;;9.50;8.13;;;10.90;99.90;;;;;;10365229;28;20609;-82
2022/11/14 18:04:25;;;;;;;9.80;9.00;;;10.80;99.90;;;;;;10375385;28;20186;-82
2022/11/14 18:09:45;;;;;;;9.40;8.50;;;10.80;99.90;;;;;;10355997;28;20774;-82
2022/11/14 18:15:07;;;;;;;11.13;10.40;;;10.90;99.90;;;;;;10356852;28;20364;-82
2022/11/14 18:20:29;;;;;;;11.70;10.70;;;10.90;99.90;;;;;;10376150;28;20356;-82
2022/11/14 18:25:50;;;;;;;11.37;10.27;;;10.90;99.90;;;;;;10366290;28;20195;-82
2022/11/14 18:31:12;;;;;;;10.63;9.73;;;10.90;99.90;;;;;;10365603;28;20605;-82
2022/11/14 18:36:34;;;;;;;10.80;9.80;;;10.90;99.90;;;;;;10384153;28;20218;-82
2022/11/14 18:41:55;;;;;;;11.43;9.77;;;10.90;99.90;;;;;;10362806;28;20331;-82
2022/11/14 18:47:16;;;;;;;10.77;9.70;;;11.00;99.90;;;;;;10361354;28;20209;-81
2022/11/14 18:52:38;;;;;;;9.13;8.53;;;11.10;99.90;;;;;;10360672;28;20206;-81
2022/11/14 18:57:58;;;;;;;10.40;9.37;;;11.10;99.90;;;;;;10378557;28;20293;-80
2022/11/14 19:03:19;;;;;;;13.50;11.70;;;11.10;99.90;;;;;;10379796;28;20195;-80
2022/11/14 19:08:41;;;;;;;12.37;11.13;;;11.10;99.90;;;;;;10360849;28;20226;-80
2022/11/14 19:14:03;;;;;;;12.50;11.20;;;11.10;99.90;;;;;;10359830;28;20678;-80
2022/11/14 19:19:24;;;;;;;13.10;11.70;;;11.00;99.90;;;;;;10374230;28;20214;-80
2022/11/14 19:24:46;;;;;;;13.10;11.90;;;11.00;99.90;;;;;;10363063;28;20665;-80
2022/11/14 19:30:08;;;;;;;11.53;10.57;;;11.00;99.90;;;;;;10362805;28;20216;-80
2022/11/14 19:35:29;;;;;;;10.10;9.40;;;11.00;99.90;;;;;;10364124;28;20214;-80
2022/11/14 19:40:51;;;;;;;10.00;9.10;;;10.90;99.90;;;;;;10368252;28;20674;-80
2022/11/14 19:46:12;;;;;;;10.90;9.80;;;10.90;99.90;;;;;;10378274;28;20198;-80
2022/11/14 19:51:33;;;;;;;11.43;10.30;;;10.80;99.90;;;;;;10354285;23;20242;-78
2022/11/14 19:56:55;;;;;;;11.47;10.27;;;10.80;99.90;;;;;;10321892;28;20359;-79
2022/11/14 20:02:16;;;;;;;11.10;10.20;;;10.70;99.90;;;;;;10326144;28;20262;-77
2022/11/14 20:07:37;;;;;;;11.60;10.50;;;10.60;99.90;;;;;;10333386;28;20298;-79
2022/11/14 20:12:59;;;;;;;10.37;9.47;;;10.50;99.90;;;;;;10344265;28;20221;-79
2022/11/14 20:18:20;;;;;;;9.70;8.90;;;10.50;99.90;;;;;;10335097;28;20219;-79
2022/11/14 20:23:41;;;;;;;9.73;9.07;;;10.40;99.90;;;;;;10330048;28;20191;-79
2022/11/14 20:29:05;;;;;;;10.13;9.33;;;10.40;99.90;;;;;;10332077;28;20218;-78
2022/11/14 20:34:26;;;;;;;9.53;8.57;;;10.30;99.90;;;;;;10334847;28;20313;-77
2022/11/14 20:39:47;;;;;;;10.47;9.57;;;10.30;99.90;;;;;;10332380;28;20777;-79
2022/11/14 20:45:10;;;;;;;9.87;8.97;;;10.30;99.90;;;;;;10342285;28;20202;-79
2022/11/14 20:50:30;;;;;;;9.93;9.13;;;10.30;99.90;;;;;;10327208;28;20624;-80
2022/11/14 20:55:54;;;;;;;10.93;10.13;;;10.30;99.90;;;;;;10332075;28;20336;-78
2022/11/14 21:01:16;;;;;;;8.73;8.03;;;10.30;99.90;;;;;;10315417;28;20234;-78
2022/11/14 21:06:36;;;;;;;10.83;9.90;;;10.40;99.90;;;;;;10319263;28;20688;-79
2022/11/14 21:11:57;;;;;;;11.23;10.40;;;10.60;99.90;;;;;;10343246;28;20564;-79
2022/11/14 21:17:19;;;;;;;11.27;10.47;;;10.60;99.90;;;;;;10323344;28;20703;-78
2022/11/14 21:22:40;;;;;;;11.23;10.30;;;10.70;99.90;;;;;;10343314;28;20209;-78
2022/11/14 21:28:00;;;;;;;10.50;9.80;;;10.70;99.90;;;;;;10332286;28;20224;-77
2022/11/14 21:33:22;;;;;;;11.87;10.87;;;10.70;99.90;;;;;;10328483;28;20374;-78
2022/11/14 21:38:43;;;;;;;12.37;11.37;;;10.70;99.90;;;;;;10330414;28;20437;-78
2022/11/14 21:44:04;;;;;;;17.43;15.13;;;10.70;99.90;;;;;;10316576;28;20236;-79
2022/11/14 21:49:26;;;;;;;11.37;10.57;;;10.70;99.90;;;;;;10330441;28;20223;-77
2022/11/14 21:54:47;;;;;;;11.50;10.60;;;10.60;99.90;;;;;;10328237;28;20244;-80
2022/11/14 22:00:09;;;;;;;17.23;15.60;;;10.60;99.90;;;;;;10327703;28;20225;-80
2022/11/14 22:05:30;;;;;;;10.40;9.40;;;10.50;99.90;;;;;;10330057;28;20238;-77
2022/11/14 22:10:51;;;;;;;9.40;8.70;;;10.40;99.90;;;;;;10330977;28;20214;-76
2022/11/14 22:16:16;;;;;;;13.80;12.57;;;10.40;99.90;;;;;;10332142;28;20195;-77
2022/11/14 22:21:40;;;;;;;10.03;9.17;;;10.30;99.90;;;;;;10330964;28;20293;-76
2022/11/14 22:27:02;;;;;;;10.83;9.93;;;10.20;99.90;;;;;;10330285;28;20534;-78
2022/11/14 22:32:23;;;;;;;10.77;9.90;;;10.20;99.90;;;;;;10332381;28;20197;-79
2022/11/14 22:37:44;;;;;;;8.87;8.03;;;10.20;99.90;;;;;;10371161;28;20218;-78
2022/11/14 22:43:05;;;;;;;10.30;9.27;;;10.10;99.90;;;;;;10374386;28;20601;-79
2022/11/14 22:48:27;;;;;;;9.37;8.67;;;10.10;99.90;;;;;;10334220;28;20226;-78
2022/11/14 22:53:51;;;;;;;9.97;9.10;;;10.10;99.90;;;;;;10290840;28;20215;-77
2022/11/14 22:59:11;;;;;;;9.20;8.40;;;10.10;99.90;;;;;;10292760;28;20655;-78
2022/11/14 23:04:32;;;;;;;8.97;8.17;;;10.10;99.90;;;;;;10363796;28;20190;-78
2022/11/14 23:09:54;;;;;;;8.27;7.67;;;10.00;99.90;;;;;;10339229;28;20772;-78
2022/11/14 23:15:14;;;;;;;10.03;9.20;;;10.00;99.90;;;;;;10365776;28;20210;-79
2022/11/14 23:20:36;;;;;;;9.60;8.90;;;10.00;99.90;;;;;;10358371;28;20562;-79
2022/11/14 23:26:02;;;;;;;9.50;8.50;;;10.00;99.90;;;;;;10364177;28;20218;-78
2022/11/14 23:31:23;;;;;;;10.00;9.30;;;10.00;99.90;;;;;;10358142;28;20221;-79
2022/11/14 23:36:43;;;;;;;10.10;9.30;;;10.10;99.90;;;;;;10363056;28;20697;-79
2022/11/14 23:42:05;;;;;;;9.53;8.80;;;10.10;99.90;;;;;;10348782;28;20215;-79
2022/11/14 23:47:26;;;;;;;11.23;10.33;;;10.20;99.90;;;;;;10364470;28;20726;-79
2022/11/14 23:52:47;;;;;;;9.87;9.13;;;10.30;99.90;;;;;;10372583;28;20236;-79
2022/11/14 23:58:09;;;;;;;11.27;10.20;;;10.40;99.90;;;;;;10352569;28;20215;-79
